createdAt,value
2018-10-19T00:00:00.009Z,9.80
2018-10-19T00:02:28.910Z,9.70
2018-10-19T00:04:57.885Z,9.60
2018-10-19T00:07:26.768Z,9.60
2018-10-19T00:09:55.678Z,9.60
2018-10-19T00:12:24.567Z,9.50
2018-10-19T00:14:53.533Z,9.50
2018-10-19T00:17:22.411Z,9.50
2018-10-19T00:19:51.339Z,9.50
2018-10-19T00:22:20.326Z,9.40
2018-10-19T00:24:49.274Z,9.20
2018-10-19T00:27:18.222Z,9.20
2018-10-19T00:29:47.165Z,9.30
2018-10-19T00:32:16.071Z,9.20
2018-10-19T00:34:45.050Z,9.40
2018-10-19T00:37:14.274Z,9.10
2018-10-19T00:39:43.287Z,9.10
2018-10-19T00:42:12.175Z,9.10
2018-10-19T00:44:41.114Z,9.10
2018-10-19T00:47:10.109Z,9.20
2018-10-19T00:49:38.886Z,9.00
2018-10-19T00:52:07.867Z,8.90
2018-10-19T00:54:36.787Z,8.90
2018-10-19T00:57:05.777Z,8.90
2018-10-19T00:59:34.703Z,8.80
2018-10-19T01:02:03.607Z,8.80
2018-10-19T01:04:32.502Z,8.70
2018-10-19T01:07:01.438Z,8.60
2018-10-19T01:09:30.363Z,8.50
2018-10-19T01:11:59.295Z,8.40
2018-10-19T01:14:28.279Z,8.40
2018-10-19T01:16:57.199Z,8.40
2018-10-19T01:19:26.087Z,8.40
2018-10-19T01:21:55.022Z,8.40
2018-10-19T01:24:23.966Z,8.50
2018-10-19T01:26:52.905Z,8.60
2018-10-19T01:29:21.846Z,8.60
2018-10-19T01:31:50.736Z,8.60
2018-10-19T01:34:19.686Z,8.50
2018-10-19T01:36:48.635Z,8.60
2018-10-19T01:39:17.609Z,8.50
2018-10-19T01:41:46.491Z,8.50
2018-10-19T01:44:15.447Z,8.50
2018-10-19T01:46:47.386Z,8.40
2018-10-19T01:49:16.757Z,8.30
2018-10-19T01:51:45.631Z,8.20
2018-10-19T01:54:14.542Z,8.20
2018-10-19T01:56:43.458Z,8.20
2018-10-19T01:59:12.437Z,8.20
2018-10-19T02:01:41.271Z,8.20
2018-10-19T02:04:10.154Z,8.20
2018-10-19T02:06:39.063Z,8.30
2018-10-19T02:09:08.521Z,8.40
2018-10-19T02:11:37.491Z,8.40
2018-10-19T02:14:06.402Z,8.50
2018-10-19T02:16:35.308Z,8.30
2018-10-19T02:19:04.219Z,8.40
2018-10-19T02:21:33.122Z,8.40
2018-10-19T02:24:02.023Z,8.40
2018-10-19T02:26:32.933Z,8.30
2018-10-19T02:29:01.886Z,8.20
2018-10-19T02:31:30.777Z,8.20
2018-10-19T02:33:59.685Z,8.20
2018-10-19T02:36:28.658Z,8.10
2018-10-19T02:38:57.718Z,8.10
2018-10-19T02:41:26.587Z,8.10
2018-10-19T02:43:55.484Z,8.10
2018-10-19T02:46:24.470Z,8.00
2018-10-19T02:48:53.463Z,7.90
2018-10-19T02:51:22.384Z,7.80
2018-10-19T02:53:51.310Z,8.00
2018-10-19T02:56:20.220Z,7.90
2018-10-19T02:58:49.131Z,7.90
2018-10-19T03:01:18.298Z,7.70
2018-10-19T03:03:47.220Z,7.70
2018-10-19T03:06:16.152Z,7.70
2018-10-19T03:08:45.099Z,7.80
2018-10-19T03:11:14.061Z,7.80
2018-10-19T03:13:42.886Z,7.80
2018-10-19T03:16:11.838Z,7.80
2018-10-19T03:18:40.776Z,7.80
2018-10-19T03:21:10.076Z,7.80
2018-10-19T03:23:39.308Z,7.80
2018-10-19T03:26:09.164Z,7.80
2018-10-19T03:28:38.082Z,7.80
2018-10-19T03:31:07.148Z,7.80
2018-10-19T03:33:35.922Z,7.70
2018-10-19T03:36:04.897Z,7.50
2018-10-19T03:38:33.787Z,7.40
2018-10-19T03:41:02.715Z,7.30
2018-10-19T03:43:31.621Z,7.30
2018-10-19T03:46:00.664Z,7.30
2018-10-19T03:48:29.559Z,7.30
2018-10-19T03:50:58.573Z,7.30
2018-10-19T03:53:27.417Z,7.30
2018-10-19T03:55:56.392Z,7.20
2018-10-19T03:58:25.322Z,7.20
2018-10-19T04:00:54.305Z,7.20
2018-10-19T04:03:23.272Z,7.30
2018-10-19T04:05:52.171Z,7.20
2018-10-19T04:08:21.145Z,7.10
2018-10-19T04:10:50.033Z,7.00
2018-10-19T04:13:18.961Z,7.10
2018-10-19T04:15:47.875Z,7.00
2018-10-19T04:18:16.769Z,7.00
2018-10-19T04:20:45.700Z,7.00
2018-10-19T04:23:14.593Z,7.00
2018-10-19T04:25:43.530Z,7.10
2018-10-19T04:28:12.446Z,7.10
2018-10-19T04:30:41.358Z,7.10
2018-10-19T04:33:10.336Z,7.00
2018-10-19T04:35:39.195Z,7.00
2018-10-19T04:38:08.414Z,6.90
2018-10-19T04:40:37.331Z,7.00
2018-10-19T04:43:06.286Z,7.00
2018-10-19T04:45:35.187Z,7.00
2018-10-19T04:48:04.212Z,6.90
2018-10-19T04:50:33.119Z,6.90
2018-10-19T04:53:02.086Z,6.80
2018-10-19T04:55:30.925Z,6.80
2018-10-19T04:57:59.828Z,6.80
2018-10-19T05:00:28.738Z,6.90
2018-10-19T05:02:57.643Z,6.90
2018-10-19T05:05:26.668Z,6.90
2018-10-19T05:07:55.455Z,6.90
2018-10-19T05:10:24.447Z,6.80
2018-10-19T05:12:53.441Z,6.80
2018-10-19T05:15:22.379Z,6.70
2018-10-19T05:17:51.489Z,6.80
2018-10-19T05:20:20.507Z,6.80
2018-10-19T05:22:49.950Z,6.80
2018-10-19T05:25:18.946Z,6.80
2018-10-19T05:27:47.845Z,6.80
2018-10-19T05:30:16.753Z,6.80
2018-10-19T05:32:45.711Z,6.90
2018-10-19T05:35:14.676Z,6.90
2018-10-19T05:37:43.502Z,6.80
2018-10-19T05:40:12.442Z,6.80
2018-10-19T05:42:41.341Z,6.80
2018-10-19T05:45:11.966Z,6.90
2018-10-19T05:47:40.974Z,6.90
2018-10-19T05:50:11.198Z,6.90
2018-10-19T05:52:44.067Z,6.90
2018-10-19T05:55:12.981Z,6.90
2018-10-19T05:57:41.846Z,6.90
2018-10-19T06:00:11.538Z,7.00
2018-10-19T06:02:40.581Z,7.10
2018-10-19T06:05:11.505Z,7.10
2018-10-19T06:07:40.410Z,7.20
2018-10-19T06:10:09.635Z,7.20
2018-10-19T06:12:38.540Z,7.20
2018-10-19T06:15:08.052Z,7.20
2018-10-19T06:17:36.983Z,7.20
2018-10-19T06:20:06.436Z,7.20
2018-10-19T06:22:35.305Z,7.40
2018-10-19T06:25:04.418Z,7.30
2018-10-19T06:27:33.367Z,7.40
2018-10-19T06:30:02.361Z,7.60
2018-10-19T06:32:31.279Z,7.70
2018-10-19T06:35:00.267Z,7.80
2018-10-19T06:37:29.086Z,7.90
2018-10-19T06:39:58.006Z,8.10
2018-10-19T06:42:26.969Z,8.20
2018-10-19T06:44:55.903Z,8.30
2018-10-19T06:47:24.985Z,8.40
2018-10-19T06:49:53.789Z,8.50
2018-10-19T06:52:22.741Z,8.60
2018-10-19T06:54:51.722Z,8.70
2018-10-19T06:57:20.650Z,8.80
2018-10-19T06:59:49.539Z,8.90
2018-10-19T07:02:18.464Z,9.00
2018-10-19T07:04:47.368Z,9.20
2018-10-19T07:07:16.266Z,9.30
2018-10-19T07:09:45.186Z,9.50
2018-10-19T07:12:14.240Z,9.50
2018-10-19T07:14:43.411Z,9.60
2018-10-19T07:17:12.366Z,9.70
2018-10-19T07:19:41.246Z,9.80
2018-10-19T07:22:10.170Z,9.90
2018-10-19T07:24:39.067Z,9.90
2018-10-19T07:27:08.003Z,10.00
2018-10-19T07:29:37.001Z,10.10
2018-10-19T07:32:05.847Z,10.20
2018-10-19T07:34:34.786Z,10.30
2018-10-19T07:37:03.747Z,10.40
2018-10-19T07:39:32.654Z,10.50
2018-10-19T07:42:01.613Z,10.60
2018-10-19T07:44:30.491Z,10.70
2018-10-19T07:46:59.416Z,10.80
2018-10-19T07:49:28.316Z,10.90
2018-10-19T07:51:57.300Z,10.90
2018-10-19T07:54:26.293Z,11.10
2018-10-19T07:56:55.163Z,11.20
2018-10-19T07:59:24.083Z,11.30
2018-10-19T08:01:53.049Z,11.40
2018-10-19T08:04:21.957Z,11.50
2018-10-19T08:06:50.940Z,11.70
2018-10-19T08:09:19.914Z,11.70
2018-10-19T08:11:48.855Z,11.70
2018-10-19T08:14:17.882Z,11.80
2018-10-19T08:16:46.717Z,11.90
2018-10-19T08:19:15.659Z,12.10
2018-10-19T08:21:44.578Z,12.20
2018-10-19T08:24:13.484Z,12.40
2018-10-19T08:26:42.537Z,12.50
2018-10-19T08:29:11.585Z,12.60
2018-10-19T08:31:40.490Z,12.60
2018-10-19T08:34:09.415Z,12.60
2018-10-19T08:36:39.211Z,12.70
2018-10-19T08:39:08.203Z,12.90
2018-10-19T08:41:37.199Z,12.90
2018-10-19T08:44:06.107Z,13.00
2018-10-19T08:46:37.042Z,13.10
2018-10-19T08:49:07.821Z,13.20
2018-10-19T08:51:36.717Z,13.40
2018-10-19T08:54:06.167Z,13.50
2018-10-19T08:56:35.122Z,13.60
2018-10-19T08:59:04.164Z,13.70
2018-10-19T09:01:33.082Z,13.90
2018-10-19T09:04:02.032Z,14.10
2018-10-19T09:06:31.050Z,14.30
2018-10-19T09:09:00.068Z,14.50
2018-10-19T09:11:29.018Z,14.70
2018-10-19T09:13:57.839Z,14.80
2018-10-19T09:16:26.784Z,15.00
2018-10-19T09:18:55.707Z,15.10
2018-10-19T09:21:24.620Z,15.20
2018-10-19T09:23:53.563Z,15.40
2018-10-19T09:26:22.659Z,15.50
2018-10-19T09:28:51.580Z,15.60
2018-10-19T09:31:20.896Z,15.60
2018-10-19T09:33:49.826Z,15.80
2018-10-19T09:36:19.018Z,15.90
2018-10-19T09:38:47.731Z,16.00
2018-10-19T09:41:16.705Z,16.20
2018-10-19T09:43:45.617Z,16.30
2018-10-19T09:46:14.582Z,16.60
2018-10-19T09:48:43.491Z,16.80
2018-10-19T09:51:12.448Z,16.90
2018-10-19T09:53:41.382Z,17.10
2018-10-19T09:56:10.385Z,17.10
2018-10-19T09:58:39.245Z,17.10
2018-10-19T10:01:13.747Z,17.20
2018-10-19T10:03:42.550Z,17.30
2018-10-19T10:06:11.459Z,17.20
2018-10-19T10:08:40.371Z,17.30
2018-10-19T10:11:09.985Z,17.30
2018-10-19T10:13:38.894Z,17.40
2018-10-19T10:16:07.826Z,17.40
2018-10-19T10:18:36.897Z,17.30
2018-10-19T10:21:06.398Z,17.20
2018-10-19T10:23:35.555Z,17.40
2018-10-19T10:26:04.503Z,17.60
2018-10-19T10:28:33.419Z,17.50
2018-10-19T10:31:02.480Z,17.60
2018-10-19T10:33:31.416Z,17.70
2018-10-19T10:36:00.410Z,17.80
2018-10-19T10:38:29.480Z,18.00
2018-10-19T10:40:58.401Z,18.00
2018-10-19T10:43:27.326Z,17.80
2018-10-19T10:45:56.286Z,18.00
2018-10-19T10:48:25.195Z,18.30
2018-10-19T10:50:54.506Z,18.40
2018-10-19T10:53:23.455Z,18.50
2018-10-19T10:55:52.578Z,18.60
2018-10-19T10:58:21.547Z,18.60
2018-10-19T11:00:50.499Z,18.80
2018-10-19T11:03:19.427Z,18.80
2018-10-19T11:05:48.567Z,19.20
2018-10-19T11:08:17.514Z,19.50
2018-10-19T11:10:46.542Z,19.20
2018-10-19T11:13:15.443Z,19.30
2018-10-19T11:15:44.406Z,18.80
2018-10-19T11:18:13.326Z,18.80
2018-10-19T11:20:42.236Z,18.80
2018-10-19T11:23:11.174Z,18.80
2018-10-19T11:25:40.130Z,19.00
2018-10-19T11:28:09.144Z,19.20
2018-10-19T11:30:38.047Z,19.10
2018-10-19T11:33:06.887Z,18.90
2018-10-19T11:35:35.863Z,18.80
2018-10-19T11:38:05.218Z,18.90
2018-10-19T11:40:37.293Z,19.20
2018-10-19T11:43:06.405Z,19.50
2018-10-19T11:45:36.315Z,19.90
2018-10-19T11:48:05.432Z,20.30
2018-10-19T11:50:34.370Z,20.40
2018-10-19T11:53:03.291Z,20.70
2018-10-19T11:55:32.203Z,20.40
2018-10-19T11:58:01.189Z,20.30
2018-10-19T12:00:30.026Z,20.70
2018-10-19T12:02:58.978Z,20.90
2018-10-19T12:05:27.869Z,21.00
2018-10-19T12:07:56.807Z,20.70
2018-10-19T12:10:25.716Z,20.80
2018-10-19T12:12:54.670Z,21.10
2018-10-19T12:15:23.586Z,21.00
2018-10-19T12:17:52.942Z,20.60
2018-10-19T12:20:21.851Z,20.20
2018-10-19T12:22:50.787Z,20.10
2018-10-19T12:25:19.742Z,19.90
2018-10-19T12:27:48.749Z,20.20
2018-10-19T12:30:17.629Z,20.40
2018-10-19T12:32:46.539Z,20.30
2018-10-19T12:35:15.523Z,20.00
2018-10-19T12:37:44.444Z,20.20
2018-10-19T12:40:13.365Z,20.10
2018-10-19T12:42:42.291Z,20.20
2018-10-19T12:46:23.546Z,20.00
2018-10-19T12:48:52.623Z,20.30
2018-10-19T12:51:21.984Z,20.20
2018-10-19T12:53:50.984Z,19.80
2018-10-19T12:56:20.612Z,19.50
2018-10-19T12:58:50.593Z,19.50
2018-10-19T13:01:20.428Z,19.10
2018-10-19T13:03:49.421Z,18.90
2018-10-19T13:06:18.602Z,18.90
2018-10-19T13:08:47.637Z,18.60
2018-10-19T13:11:16.658Z,19.00
2018-10-19T13:13:45.644Z,19.20
2018-10-19T13:16:14.829Z,19.50
2018-10-19T13:18:43.643Z,20.00
2018-10-19T13:21:12.603Z,19.80
2018-10-19T13:23:41.483Z,19.60
2018-10-19T13:26:10.505Z,19.70
2018-10-19T13:28:39.410Z,20.10
2018-10-19T13:31:08.411Z,20.40
2018-10-19T13:33:37.298Z,20.90
2018-10-19T13:36:06.382Z,21.10
2018-10-19T13:38:35.333Z,21.40
2018-10-19T13:41:04.287Z,21.60
2018-10-19T13:43:33.211Z,21.70
2018-10-19T13:46:02.142Z,21.90
2018-10-19T13:48:31.046Z,22.00
2018-10-19T13:51:00.213Z,22.10
2018-10-19T13:53:29.139Z,21.30
2018-10-19T13:55:58.071Z,21.50
2018-10-19T13:58:27.075Z,21.50
2018-10-19T14:00:55.956Z,21.70
2018-10-19T14:03:24.867Z,21.50
2018-10-19T14:05:53.790Z,21.50
2018-10-19T14:08:22.779Z,21.40
2018-10-19T14:10:51.704Z,20.90
2018-10-19T14:13:20.680Z,20.30
2018-10-19T14:15:49.730Z,19.70
2018-10-19T14:18:18.670Z,19.80
2018-10-19T14:20:47.619Z,19.50
2018-10-19T14:23:16.617Z,19.40
2018-10-19T14:25:45.491Z,19.30
2018-10-19T14:28:14.433Z,19.20
2018-10-19T14:30:43.345Z,19.40
2018-10-19T14:33:12.412Z,19.50
2018-10-19T14:35:41.294Z,19.70
2018-10-19T14:38:10.213Z,19.70
2018-10-19T14:40:39.122Z,19.90
2018-10-19T14:43:08.015Z,19.70
2018-10-19T14:45:36.947Z,19.60
2018-10-19T14:48:05.840Z,19.50
2018-10-19T14:50:34.772Z,19.60
2018-10-19T14:53:03.728Z,19.70
2018-10-19T14:55:32.686Z,19.70
2018-10-19T14:58:01.585Z,19.70
2018-10-19T15:00:30.498Z,19.50
2018-10-19T15:02:59.445Z,19.30
2018-10-19T15:05:28.344Z,18.80
2018-10-19T15:07:57.275Z,18.90
2018-10-19T15:10:26.550Z,19.00
2018-10-19T15:12:55.289Z,19.00
2018-10-19T15:15:24.622Z,18.50
2018-10-19T15:17:53.605Z,18.40
2018-10-19T15:20:22.533Z,18.10
2018-10-19T15:22:51.498Z,18.00
2018-10-19T15:25:20.504Z,17.80
2018-10-19T15:27:49.434Z,17.70
2018-10-19T15:30:19.382Z,17.70
2018-10-19T15:32:48.334Z,17.50
2018-10-19T15:35:17.269Z,17.40
2018-10-19T15:37:46.211Z,17.40
2018-10-19T15:40:15.166Z,17.40
2018-10-19T15:42:44.111Z,17.20
2018-10-19T15:45:13.398Z,17.20
2018-10-19T15:47:42.288Z,17.20
2018-10-19T15:50:11.234Z,17.20
2018-10-19T15:52:40.178Z,17.10
2018-10-19T15:55:09.103Z,17.00
2018-10-19T15:57:38.134Z,16.90
2018-10-19T16:00:08.959Z,16.70
2018-10-19T16:02:37.834Z,16.60
2018-10-19T16:05:08.287Z,16.50
2018-10-19T16:07:37.215Z,16.40
2018-10-19T16:10:07.115Z,16.30
2018-10-19T16:12:36.223Z,16.30
2018-10-19T16:15:06.793Z,16.20
2018-10-19T16:17:35.900Z,16.10
2018-10-19T16:20:06.158Z,16.00
2018-10-19T16:22:35.913Z,15.80
2018-10-19T16:25:05.994Z,15.80
2018-10-19T16:27:35.042Z,15.60
2018-10-19T16:30:04.229Z,15.50
2018-10-19T16:32:33.071Z,15.40
2018-10-19T16:35:02.090Z,15.20
2018-10-19T16:37:31.002Z,15.00
2018-10-19T16:39:59.924Z,15.00
2018-10-19T16:42:29.347Z,15.10
2018-10-19T16:44:58.310Z,15.10
2018-10-19T16:47:27.335Z,14.90
2018-10-19T16:49:56.254Z,14.90
2018-10-19T16:52:25.307Z,14.80
2018-10-19T16:54:54.158Z,14.70
2018-10-19T16:57:23.151Z,14.70
2018-10-19T16:59:52.187Z,14.50
2018-10-19T17:02:21.190Z,14.40
2018-10-19T17:04:50.182Z,14.30
2018-10-19T17:07:19.049Z,14.20
2018-10-19T17:09:47.962Z,14.10
2018-10-19T17:12:16.959Z,14.10
2018-10-19T17:14:45.819Z,14.00
2018-10-19T17:17:14.854Z,14.00
2018-10-19T17:19:43.742Z,13.90
2018-10-19T17:22:12.686Z,13.90
2018-10-19T17:24:41.579Z,13.60
2018-10-19T17:27:11.212Z,13.40
2018-10-19T17:29:40.087Z,13.30
2018-10-19T17:32:08.986Z,13.20
2018-10-19T17:34:37.893Z,13.40
2018-10-19T17:37:06.931Z,13.50
2018-10-19T17:39:35.858Z,13.50
2018-10-19T17:42:04.909Z,13.50
2018-10-19T17:44:33.770Z,13.50
2018-10-19T17:47:02.734Z,13.50
2018-10-19T17:49:31.600Z,13.50
2018-10-19T17:52:00.494Z,13.40
2018-10-19T17:54:29.479Z,13.30
2018-10-19T17:56:58.428Z,13.20
2018-10-19T17:59:27.330Z,13.10
2018-10-19T18:01:56.303Z,13.10
2018-10-19T18:04:25.217Z,13.00
2018-10-19T18:06:54.239Z,12.80
2018-10-19T18:09:23.215Z,12.60
2018-10-19T18:11:52.174Z,12.60
2018-10-19T18:14:21.194Z,12.50
2018-10-19T18:16:50.166Z,12.30
2018-10-19T18:19:20.596Z,12.30
2018-10-19T18:21:49.595Z,12.20
2018-10-19T18:24:18.425Z,12.20
2018-10-19T18:26:47.346Z,12.10
2018-10-19T18:29:16.413Z,12.00
2018-10-19T18:31:45.456Z,12.00
2018-10-19T18:34:14.359Z,12.00
2018-10-19T18:36:43.334Z,11.90
2018-10-19T18:39:13.842Z,12.00
2018-10-19T18:41:43.272Z,11.90
2018-10-19T18:44:12.181Z,11.90
2018-10-19T18:46:41.022Z,11.80
2018-10-19T18:49:10.143Z,11.60
2018-10-19T18:51:39.112Z,11.60
2018-10-19T18:54:08.030Z,11.60
2018-10-19T18:56:36.962Z,11.50
2018-10-19T18:59:05.972Z,11.50
2018-10-19T19:01:34.828Z,11.40
2018-10-19T19:04:03.772Z,11.40
2018-10-19T19:06:32.694Z,11.30
2018-10-19T19:09:01.617Z,11.30
2018-10-19T19:11:30.511Z,11.30
2018-10-19T19:13:59.472Z,11.10
2018-10-19T19:16:29.521Z,11.10
2018-10-19T19:18:58.429Z,11.10
2018-10-19T19:21:27.484Z,11.10
2018-10-19T19:24:01.810Z,10.90
2018-10-19T19:26:30.702Z,10.90
2018-10-19T19:29:01.239Z,10.80
2018-10-19T19:31:30.191Z,10.80
2018-10-19T19:34:04.363Z,10.70
2018-10-19T19:36:33.280Z,10.70
2018-10-19T19:39:02.190Z,10.60
2018-10-19T19:41:36.685Z,10.60
2018-10-19T19:44:05.677Z,10.50
2018-10-19T19:46:34.564Z,10.60
2018-10-19T19:49:08.888Z,10.40
2018-10-19T19:51:37.679Z,10.40
2018-10-19T19:54:06.752Z,10.40
2018-10-19T19:56:35.962Z,10.50
2018-10-19T19:59:04.981Z,10.40
2018-10-19T20:01:33.847Z,10.40
2018-10-19T20:04:02.835Z,10.30
2018-10-19T20:06:31.811Z,10.30
2018-10-19T20:09:00.692Z,10.20
2018-10-19T20:11:29.696Z,10.10
2018-10-19T20:13:58.674Z,10.10
2018-10-19T20:16:27.660Z,10.10
2018-10-19T20:18:56.582Z,10.00
2018-10-19T20:21:25.536Z,9.90
2018-10-19T20:23:54.477Z,9.90
2018-10-19T20:26:23.515Z,10.00
2018-10-19T20:28:52.499Z,10.10
2018-10-19T20:31:21.436Z,10.00
2018-10-19T20:33:50.614Z,10.00
2018-10-19T20:36:19.551Z,9.80
2018-10-19T20:38:48.435Z,9.80
2018-10-19T20:41:17.504Z,9.90
2018-10-19T20:43:46.467Z,9.90
2018-10-19T20:46:15.342Z,9.70
2018-10-19T20:48:44.239Z,9.80
2018-10-19T20:51:13.135Z,9.60
2018-10-19T20:53:42.023Z,9.60
2018-10-19T20:56:11.207Z,9.60
2018-10-19T20:58:40.027Z,9.50
2018-10-19T21:01:09.063Z,9.60
2018-10-19T21:03:38.087Z,9.60
2018-10-19T21:06:06.990Z,9.40
2018-10-19T21:08:35.923Z,9.30
2018-10-19T21:11:05.307Z,9.30
2018-10-19T21:13:34.189Z,9.30
2018-10-19T21:16:03.038Z,9.20
2018-10-19T21:18:32.046Z,9.20
2018-10-19T21:21:01.070Z,9.20
2018-10-19T21:23:31.024Z,9.30
2018-10-19T21:25:59.947Z,9.30
2018-10-19T21:28:28.818Z,9.30
2018-10-19T21:30:57.698Z,9.40
2018-10-19T21:33:26.594Z,9.50
2018-10-19T21:35:55.538Z,9.40
2018-10-19T21:38:24.450Z,9.40
2018-10-19T21:40:53.376Z,9.40
2018-10-19T21:43:22.316Z,9.20
2018-10-19T21:45:51.535Z,9.00
2018-10-19T21:48:20.449Z,8.90
2018-10-19T21:50:49.516Z,8.90
2018-10-19T21:53:18.427Z,8.80
2018-10-19T21:55:47.322Z,8.90
2018-10-19T21:58:16.282Z,8.90
2018-10-19T22:00:45.163Z,8.80
2018-10-19T22:03:14.098Z,8.80
2018-10-19T22:05:43.028Z,8.80
2018-10-19T22:08:11.945Z,8.80
2018-10-19T22:10:40.847Z,8.60
2018-10-19T22:13:09.811Z,8.60
2018-10-19T22:15:38.720Z,8.50
2018-10-19T22:18:07.642Z,8.60
2018-10-19T22:20:36.568Z,8.60
2018-10-19T22:23:05.666Z,8.50
2018-10-19T22:25:34.495Z,8.40
2018-10-19T22:28:03.391Z,8.50
2018-10-19T22:30:32.311Z,8.50
2018-10-19T22:33:01.250Z,8.60
2018-10-19T22:35:30.146Z,8.50
2018-10-19T22:37:59.043Z,8.50
2018-10-19T22:40:27.970Z,8.50
2018-10-19T22:42:56.964Z,8.40
2018-10-19T22:45:25.906Z,8.30
2018-10-19T22:47:54.839Z,8.30
2018-10-19T22:50:23.809Z,8.20
2018-10-19T22:52:52.730Z,8.20
2018-10-19T22:55:21.673Z,8.20
2018-10-19T22:57:50.642Z,8.00
2018-10-19T23:00:19.577Z,8.00
2018-10-19T23:02:48.490Z,8.00
2018-10-19T23:05:17.483Z,8.00
2018-10-19T23:07:46.393Z,7.90
2018-10-19T23:10:15.403Z,7.90
2018-10-19T23:12:44.311Z,7.90
2018-10-19T23:15:13.338Z,7.90
2018-10-19T23:17:42.252Z,7.90
2018-10-19T23:20:11.135Z,8.00
2018-10-19T23:22:40.073Z,8.10
2018-10-19T23:25:09.076Z,8.00
2018-10-19T23:27:38.103Z,7.90
2018-10-19T23:30:07.400Z,7.80
2018-10-19T23:32:36.628Z,7.90
2018-10-19T23:35:06.596Z,7.80
2018-10-19T23:37:35.586Z,7.60
2018-10-19T23:40:04.594Z,7.50
2018-10-19T23:42:33.501Z,7.40
2018-10-19T23:45:03.503Z,7.50
2018-10-19T23:47:32.422Z,7.40
2018-10-19T23:50:01.350Z,7.40
2018-10-19T23:52:30.239Z,7.50
2018-10-19T23:54:59.178Z,7.50
2018-10-19T23:57:28.061Z,7.40
2018-10-19T23:59:57.022Z,7.40
